sensor_id;sensor_type;location;lat;lon;timestamp;temperature;humidity
698;DHT22;331;48.414;9.938;2023-04-02T00:01:17;7.70;99.90
698;DHT22;331;48.414;9.938;2023-04-02T00:06:34;7.70;99.90
698;DHT22;331;48.414;9.938;2023-04-02T00:09:16;7.70;99.90
698;DHT22;331;48.414;9.938;2023-04-02T00:11:44;7.70;99.90
698;DHT22;331;48.414;9.938;2023-04-02T00:14:16;7.70;99.90
698;DHT22;331;48.414;9.938;2023-04-02T00:16:43;7.70;99.90
698;DHT22;331;48.414;9.938;2023-04-02T00:19:12;7.70;99.90
698;DHT22;331;48.414;9.938;2023-04-02T00:21:41;7.70;99.90
698;DHT22;331;48.414;9.938;2023-04-02T00:24:13;7.70;99.90
698;DHT22;331;48.414;9.938;2023-04-02T00:26:42;7.60;99.90
698;DHT22;331;48.414;9.938;2023-04-02T00:29:10;7.70;99.90
698;DHT22;331;48.414;9.938;2023-04-02T00:31:40;7.70;99.90
698;DHT22;331;48.414;9.938;2023-04-02T00:34:08;7.60;99.90
698;DHT22;331;48.414;9.938;2023-04-02T00:36:38;7.60;99.90
698;DHT22;331;48.414;9.938;2023-04-02T00:39:09;7.60;99.90
698;DHT22;331;48.414;9.938;2023-04-02T00:41:39;7.60;99.90
698;DHT22;331;48.414;9.938;2023-04-02T00:44:11;7.60;99.90
698;DHT22;331;48.414;9.938;2023-04-02T00:46:41;7.60;99.90
698;DHT22;331;48.414;9.938;2023-04-02T00:49:14;7.60;99.90
698;DHT22;331;48.414;9.938;2023-04-02T00:51:44;7.60;99.90
698;DHT22;331;48.414;9.938;2023-04-02T00:54:13;7.60;99.90
698;DHT22;331;48.414;9.938;2023-04-02T00:56:45;7.60;99.90
698;DHT22;331;48.414;9.938;2023-04-02T00:59:15;7.60;99.90
698;DHT22;331;48.414;9.938;2023-04-02T01:01:44;7.50;99.90
698;DHT22;331;48.414;9.938;2023-04-02T01:04:25;7.50;99.90
698;DHT22;331;48.414;9.938;2023-04-02T01:06:53;7.50;99.90
698;DHT22;331;48.414;9.938;2023-04-02T01:09:26;7.50;99.90
698;DHT22;331;48.414;9.938;2023-04-02T01:12:00;7.50;99.90
698;DHT22;331;48.414;9.938;2023-04-02T01:14:32;7.50;99.90
698;DHT22;331;48.414;9.938;2023-04-02T01:17:06;7.50;99.90
698;DHT22;331;48.414;9.938;2023-04-02T01:19:42;7.40;99.90
698;DHT22;331;48.414;9.938;2023-04-02T01:22:13;7.40;99.90
698;DHT22;331;48.414;9.938;2023-04-02T01:24:42;7.50;99.90
698;DHT22;331;48.414;9.938;2023-04-02T01:27:12;7.50;99.90
698;DHT22;331;48.414;9.938;2023-04-02T01:29:44;7.40;99.90
698;DHT22;331;48.414;9.938;2023-04-02T01:32:14;7.40;99.90
698;DHT22;331;48.414;9.938;2023-04-02T01:34:42;7.40;99.90
698;DHT22;331;48.414;9.938;2023-04-02T01:37:16;7.50;99.90
698;DHT22;331;48.414;9.938;2023-04-02T01:42:31;7.40;99.90
698;DHT22;331;48.414;9.938;2023-04-02T01:45:04;7.40;99.90
698;DHT22;331;48.414;9.938;2023-04-02T01:47:33;7.40;99.90
698;DHT22;331;48.414;9.938;2023-04-02T01:50:03;7.40;99.90
698;DHT22;331;48.414;9.938;2023-04-02T01:52:34;7.40;99.90
698;DHT22;331;48.414;9.938;2023-04-02T01:55:02;7.30;99.90
698;DHT22;331;48.414;9.938;2023-04-02T01:57:30;7.30;99.90
698;DHT22;331;48.414;9.938;2023-04-02T01:59:57;7.30;99.90
698;DHT22;331;48.414;9.938;2023-04-02T02:02:26;7.30;99.90
698;DHT22;331;48.414;9.938;2023-04-02T02:04:53;7.30;99.90
698;DHT22;331;48.414;9.938;2023-04-02T02:07:20;7.30;99.90
698;DHT22;331;48.414;9.938;2023-04-02T02:09:51;7.30;99.90
698;DHT22;331;48.414;9.938;2023-04-02T02:12:19;7.30;99.90
698;DHT22;331;48.414;9.938;2023-04-02T02:14:46;7.30;99.90
698;DHT22;331;48.414;9.938;2023-04-02T02:17:17;7.20;99.90
698;DHT22;331;48.414;9.938;2023-04-02T02:19:48;7.20;99.90
698;DHT22;331;48.414;9.938;2023-04-02T02:22:17;7.20;99.90
698;DHT22;331;48.414;9.938;2023-04-02T02:24:45;7.20;99.90
698;DHT22;331;48.414;9.938;2023-04-02T02:30:05;7.20;99.90
698;DHT22;331;48.414;9.938;2023-04-02T02:32:38;7.20;99.90
698;DHT22;331;48.414;9.938;2023-04-02T02:35:09;7.20;99.90
698;DHT22;331;48.414;9.938;2023-04-02T02:37:39;7.20;99.90
698;DHT22;331;48.414;9.938;2023-04-02T02:40:09;7.10;99.90
698;DHT22;331;48.414;9.938;2023-04-02T02:42:37;7.10;99.90
698;DHT22;331;48.414;9.938;2023-04-02T02:45:05;7.10;99.90
698;DHT22;331;48.414;9.938;2023-04-02T02:47:36;7.10;99.90
698;DHT22;331;48.414;9.938;2023-04-02T02:50:10;7.10;99.90
698;DHT22;331;48.414;9.938;2023-04-02T02:52:40;7.10;99.90
698;DHT22;331;48.414;9.938;2023-04-02T02:55:13;7.10;99.90
698;DHT22;331;48.414;9.938;2023-04-02T02:57:51;7.10;99.90
698;DHT22;331;48.414;9.938;2023-04-02T03:00:21;7.10;99.90
698;DHT22;331;48.414;9.938;2023-04-02T03:02:50;7.00;99.90
698;DHT22;331;48.414;9.938;2023-04-02T03:05:21;7.00;99.90
698;DHT22;331;48.414;9.938;2023-04-02T03:07:52;7.00;99.90
698;DHT22;331;48.414;9.938;2023-04-02T03:10:22;7.00;99.90
698;DHT22;331;48.414;9.938;2023-04-02T03:12:51;7.00;99.90
698;DHT22;331;48.414;9.938;2023-04-02T03:15:21;7.00;99.90
698;DHT22;331;48.414;9.938;2023-04-02T03:17:50;7.00;99.90
698;DHT22;331;48.414;9.938;2023-04-02T03:20:20;7.00;99.90
698;DHT22;331;48.414;9.938;2023-04-02T03:22:51;7.00;99.90
698;DHT22;331;48.414;9.938;2023-04-02T03:25:22;7.00;99.90
698;DHT22;331;48.414;9.938;2023-04-02T03:27:54;7.00;99.90
698;DHT22;331;48.414;9.938;2023-04-02T03:30:26;6.90;99.90
698;DHT22;331;48.414;9.938;2023-04-02T03:32:56;6.90;99.90
698;DHT22;331;48.414;9.938;2023-04-02T03:35:30;6.90;99.90
698;DHT22;331;48.414;9.938;2023-04-02T03:37:59;6.90;99.90
698;DHT22;331;48.414;9.938;2023-04-02T03:40:29;6.90;99.90
698;DHT22;331;48.414;9.938;2023-04-02T03:42:59;6.90;99.90
698;DHT22;331;48.414;9.938;2023-04-02T03:45:30;6.90;99.90
698;DHT22;331;48.414;9.938;2023-04-02T03:47:59;6.90;99.90
698;DHT22;331;48.414;9.938;2023-04-02T03:50:29;6.80;99.90
698;DHT22;331;48.414;9.938;2023-04-02T03:53:00;6.80;99.90
698;DHT22;331;48.414;9.938;2023-04-02T03:55:28;6.80;99.90
698;DHT22;331;48.414;9.938;2023-04-02T03:57:58;6.80;99.90
698;DHT22;331;48.414;9.938;2023-04-02T04:00:29;6.80;99.90
698;DHT22;331;48.414;9.938;2023-04-02T04:03:01;6.80;99.90
698;DHT22;331;48.414;9.938;2023-04-02T04:05:29;6.80;99.90
698;DHT22;331;48.414;9.938;2023-04-02T04:08:01;6.80;99.90
698;DHT22;331;48.414;9.938;2023-04-02T04:10:28;6.80;99.90
698;DHT22;331;48.414;9.938;2023-04-02T04:13:00;6.80;99.90
698;DHT22;331;48.414;9.938;2023-04-02T04:15:29;6.80;99.90
698;DHT22;331;48.414;9.938;2023-04-02T04:17:59;6.80;99.90
698;DHT22;331;48.414;9.938;2023-04-02T04:20:34;6.80;99.90
698;DHT22;331;48.414;9.938;2023-04-02T04:23:09;6.70;99.90
698;DHT22;331;48.414;9.938;2023-04-02T04:25:37;6.70;99.90
698;DHT22;331;48.414;9.938;2023-04-02T04:28:15;6.70;99.90
698;DHT22;331;48.414;9.938;2023-04-02T04:30:48;6.70;99.90
698;DHT22;331;48.414;9.938;2023-04-02T04:33:19;6.70;99.90
698;DHT22;331;48.414;9.938;2023-04-02T04:35:50;6.70;99.90
698;DHT22;331;48.414;9.938;2023-04-02T04:38:25;6.70;99.90
698;DHT22;331;48.414;9.938;2023-04-02T04:41:00;6.70;99.90
698;DHT22;331;48.414;9.938;2023-04-02T04:43:32;6.70;99.90
698;DHT22;331;48.414;9.938;2023-04-02T04:46:01;6.60;99.90
698;DHT22;331;48.414;9.938;2023-04-02T04:48:31;6.70;99.90
698;DHT22;331;48.414;9.938;2023-04-02T04:51:00;6.60;99.90
698;DHT22;331;48.414;9.938;2023-04-02T04:53:29;6.70;99.90
698;DHT22;331;48.414;9.938;2023-04-02T04:55:59;6.60;99.90
698;DHT22;331;48.414;9.938;2023-04-02T04:58:32;6.60;99.90
698;DHT22;331;48.414;9.938;2023-04-02T05:01:02;6.60;99.90
698;DHT22;331;48.414;9.938;2023-04-02T05:03:34;6.60;99.90
698;DHT22;331;48.414;9.938;2023-04-02T05:06:07;6.60;99.90
698;DHT22;331;48.414;9.938;2023-04-02T05:08:40;6.60;99.90
698;DHT22;331;48.414;9.938;2023-04-02T05:11:09;6.60;99.90
698;DHT22;331;48.414;9.938;2023-04-02T05:13:43;6.60;99.90
698;DHT22;331;48.414;9.938;2023-04-02T05:16:14;6.60;99.90
698;DHT22;331;48.414;9.938;2023-04-02T05:18:45;6.50;99.90
698;DHT22;331;48.414;9.938;2023-04-02T05:21:14;6.50;99.90
698;DHT22;331;48.414;9.938;2023-04-02T05:23:46;6.50;99.90
698;DHT22;331;48.414;9.938;2023-04-02T05:26:14;6.50;99.90
698;DHT22;331;48.414;9.938;2023-04-02T05:28:43;6.50;99.90
698;DHT22;331;48.414;9.938;2023-04-02T05:31:12;6.50;99.90
698;DHT22;331;48.414;9.938;2023-04-02T05:33:43;6.40;99.90
698;DHT22;331;48.414;9.938;2023-04-02T05:36:11;6.50;99.90
698;DHT22;331;48.414;9.938;2023-04-02T05:38:50;6.50;99.90
698;DHT22;331;48.414;9.938;2023-04-02T05:41:24;6.50;99.90
698;DHT22;331;48.414;9.938;2023-04-02T05:43:56;6.40;99.90
698;DHT22;331;48.414;9.938;2023-04-02T05:46:26;6.40;99.90
698;DHT22;331;48.414;9.938;2023-04-02T05:48:56;6.40;99.90
698;DHT22;331;48.414;9.938;2023-04-02T05:51:25;6.40;99.90
698;DHT22;331;48.414;9.938;2023-04-02T05:53:57;6.40;99.90
698;DHT22;331;48.414;9.938;2023-04-02T05:56:26;6.40;99.90
698;DHT22;331;48.414;9.938;2023-04-02T05:58:59;6.40;99.90
698;DHT22;331;48.414;9.938;2023-04-02T06:01:38;6.40;99.90
698;DHT22;331;48.414;9.938;2023-04-02T06:04:13;6.40;99.90
698;DHT22;331;48.414;9.938;2023-04-02T06:06:45;6.40;99.90
698;DHT22;331;48.414;9.938;2023-04-02T06:09:16;6.40;99.90
698;DHT22;331;48.414;9.938;2023-04-02T06:11:46;6.40;99.90
698;DHT22;331;48.414;9.938;2023-04-02T06:14:16;6.40;99.90
698;DHT22;331;48.414;9.938;2023-04-02T06:16:45;6.40;99.90
698;DHT22;331;48.414;9.938;2023-04-02T06:19:14;6.40;99.90
698;DHT22;331;48.414;9.938;2023-04-02T06:21:42;6.40;99.90
698;DHT22;331;48.414;9.938;2023-04-02T06:24:09;6.40;99.90
698;DHT22;331;48.414;9.938;2023-04-02T06:26:42;6.30;99.90
698;DHT22;331;48.414;9.938;2023-04-02T06:29:16;6.40;99.90
698;DHT22;331;48.414;9.938;2023-04-02T06:31:47;6.40;99.90
698;DHT22;331;48.414;9.938;2023-04-02T06:34:18;6.40;99.90
698;DHT22;331;48.414;9.938;2023-04-02T06:37:00;6.40;99.90
698;DHT22;331;48.414;9.938;2023-04-02T06:39:30;6.40;99.90
698;DHT22;331;48.414;9.938;2023-04-02T06:42:03;6.40;99.90
698;DHT22;331;48.414;9.938;2023-04-02T06:44:58;6.30;99.90
698;DHT22;331;48.414;9.938;2023-04-02T06:47:40;6.40;99.90
698;DHT22;331;48.414;9.938;2023-04-02T06:50:15;6.30;99.90
698;DHT22;331;48.414;9.938;2023-04-02T06:52:45;6.30;99.90
698;DHT22;331;48.414;9.938;2023-04-02T06:55:20;6.40;99.90
698;DHT22;331;48.414;9.938;2023-04-02T06:57:53;6.30;99.90
698;DHT22;331;48.414;9.938;2023-04-02T07:00:23;6.40;99.90
698;DHT22;331;48.414;9.938;2023-04-02T07:02:51;6.30;99.90
698;DHT22;331;48.414;9.938;2023-04-02T07:05:19;6.30;99.90
698;DHT22;331;48.414;9.938;2023-04-02T07:07:47;6.40;99.90
698;DHT22;331;48.414;9.938;2023-04-02T07:10:14;6.40;99.90
698;DHT22;331;48.414;9.938;2023-04-02T07:12:44;6.40;99.90
698;DHT22;331;48.414;9.938;2023-04-02T07:15:14;6.40;99.90
698;DHT22;331;48.414;9.938;2023-04-02T07:17:41;6.40;99.90
698;DHT22;331;48.414;9.938;2023-04-02T07:20:12;6.40;99.90
698;DHT22;331;48.414;9.938;2023-04-02T07:22:46;6.40;99.90
698;DHT22;331;48.414;9.938;2023-04-02T07:25:13;6.40;99.90
698;DHT22;331;48.414;9.938;2023-04-02T07:27:40;6.40;99.90
698;DHT22;331;48.414;9.938;2023-04-02T07:30:07;6.40;99.90
698;DHT22;331;48.414;9.938;2023-04-02T07:32:36;6.40;99.90
698;DHT22;331;48.414;9.938;2023-04-02T07:35:03;6.40;99.90
698;DHT22;331;48.414;9.938;2023-04-02T07:37:30;6.40;99.90
698;DHT22;331;48.414;9.938;2023-04-02T07:39:58;6.50;99.90
698;DHT22;331;48.414;9.938;2023-04-02T07:42:26;6.50;99.90
698;DHT22;331;48.414;9.938;2023-04-02T07:44:53;6.50;99.90
698;DHT22;331;48.414;9.938;2023-04-02T07:47:20;6.50;99.90
698;DHT22;331;48.414;9.938;2023-04-02T07:49:49;6.50;99.90
698;DHT22;331;48.414;9.938;2023-04-02T07:52:19;6.50;99.90
698;DHT22;331;48.414;9.938;2023-04-02T07:54:46;6.50;99.90
698;DHT22;331;48.414;9.938;2023-04-02T07:57:13;6.50;99.90
698;DHT22;331;48.414;9.938;2023-04-02T07:59:40;6.50;99.90
698;DHT22;331;48.414;9.938;2023-04-02T08:02:13;6.60;99.90
698;DHT22;331;48.414;9.938;2023-04-02T08:04:41;6.50;99.90
698;DHT22;331;48.414;9.938;2023-04-02T08:07:10;6.60;99.90
698;DHT22;331;48.414;9.938;2023-04-02T08:09:36;6.60;99.90
698;DHT22;331;48.414;9.938;2023-04-02T08:12:04;6.60;99.90
698;DHT22;331;48.414;9.938;2023-04-02T08:14:30;6.70;99.90
698;DHT22;331;48.414;9.938;2023-04-02T08:16:59;6.80;99.90
698;DHT22;331;48.414;9.938;2023-04-02T08:19:26;7.00;99.90
698;DHT22;331;48.414;9.938;2023-04-02T08:21:54;7.00;99.90
698;DHT22;331;48.414;9.938;2023-04-02T08:24:23;6.90;99.90
698;DHT22;331;48.414;9.938;2023-04-02T08:26:52;6.80;99.90
698;DHT22;331;48.414;9.938;2023-04-02T08:29:19;6.80;99.90
698;DHT22;331;48.414;9.938;2023-04-02T08:31:46;6.80;99.90
698;DHT22;331;48.414;9.938;2023-04-02T08:34:13;6.80;99.90
698;DHT22;331;48.414;9.938;2023-04-02T08:36:41;6.90;99.90
698;DHT22;331;48.414;9.938;2023-04-02T08:39:09;6.90;99.90
698;DHT22;331;48.414;9.938;2023-04-02T08:41:40;6.90;99.90
698;DHT22;331;48.414;9.938;2023-04-02T08:46:53;6.90;99.90
698;DHT22;331;48.414;9.938;2023-04-02T08:49:26;7.00;99.90
698;DHT22;331;48.414;9.938;2023-04-02T08:51:54;7.00;99.90
698;DHT22;331;48.414;9.938;2023-04-02T08:54:25;7.00;99.90
698;DHT22;331;48.414;9.938;2023-04-02T08:56:55;7.20;99.90
698;DHT22;331;48.414;9.938;2023-04-02T08:59:26;7.20;99.90
698;DHT22;331;48.414;9.938;2023-04-02T09:01:58;7.20;99.90
698;DHT22;331;48.414;9.938;2023-04-02T09:04:26;7.20;99.90
698;DHT22;331;48.414;9.938;2023-04-02T09:06:54;7.20;99.90
698;DHT22;331;48.414;9.938;2023-04-02T09:09:21;7.20;99.90
698;DHT22;331;48.414;9.938;2023-04-02T09:11:51;7.30;99.90
698;DHT22;331;48.414;9.938;2023-04-02T09:14:23;7.30;99.90
698;DHT22;331;48.414;9.938;2023-04-02T09:16:51;7.30;99.90
698;DHT22;331;48.414;9.938;2023-04-02T09:19:20;7.30;99.90
698;DHT22;331;48.414;9.938;2023-04-02T09:21:53;7.30;99.90
698;DHT22;331;48.414;9.938;2023-04-02T09:24:23;7.30;99.90
698;DHT22;331;48.414;9.938;2023-04-02T09:26:50;7.30;99.90
698;DHT22;331;48.414;9.938;2023-04-02T09:29:30;7.40;99.90
698;DHT22;331;48.414;9.938;2023-04-02T09:32:05;7.40;99.90
698;DHT22;331;48.414;9.938;2023-04-02T09:34:34;7.40;99.90
698;DHT22;331;48.414;9.938;2023-04-02T09:37:05;7.40;99.90
698;DHT22;331;48.414;9.938;2023-04-02T09:39:33;7.40;99.90
698;DHT22;331;48.414;9.938;2023-04-02T09:42:01;7.40;99.90
698;DHT22;331;48.414;9.938;2023-04-02T09:44:32;7.40;99.90
698;DHT22;331;48.414;9.938;2023-04-02T09:47:00;7.50;99.90
698;DHT22;331;48.414;9.938;2023-04-02T09:49:29;7.60;99.90
698;DHT22;331;48.414;9.938;2023-04-02T09:55:04;7.60;99.90
698;DHT22;331;48.414;9.938;2023-04-02T09:57:33;7.60;99.90
698;DHT22;331;48.414;9.938;2023-04-02T10:00:14;7.60;99.90
698;DHT22;331;48.414;9.938;2023-04-02T10:02:43;7.60;99.90
698;DHT22;331;48.414;9.938;2023-04-02T10:05:16;7.70;99.90
698;DHT22;331;48.414;9.938;2023-04-02T10:07:45;7.70;99.90
698;DHT22;331;48.414;9.938;2023-04-02T10:10:17;7.80;99.90
698;DHT22;331;48.414;9.938;2023-04-02T10:12:46;7.90;99.90
698;DHT22;331;48.414;9.938;2023-04-02T10:15:20;8.20;99.90
698;DHT22;331;48.414;9.938;2023-04-02T10:17:49;8.40;99.90
698;DHT22;331;48.414;9.938;2023-04-02T10:20:26;8.30;99.90
698;DHT22;331;48.414;9.938;2023-04-02T10:22:55;8.20;99.90
698;DHT22;331;48.414;9.938;2023-04-02T10:25:23;8.20;99.90
698;DHT22;331;48.414;9.938;2023-04-02T10:27:54;8.20;99.90
698;DHT22;331;48.414;9.938;2023-04-02T10:30:24;8.20;99.90
698;DHT22;331;48.414;9.938;2023-04-02T10:32:54;8.20;99.90
698;DHT22;331;48.414;9.938;2023-04-02T10:35:27;8.20;99.90
698;DHT22;331;48.414;9.938;2023-04-02T10:38:08;8.20;99.90
698;DHT22;331;48.414;9.938;2023-04-02T10:40:42;8.20;99.90
698;DHT22;331;48.414;9.938;2023-04-02T10:43:26;8.30;99.90
698;DHT22;331;48.414;9.938;2023-04-02T10:45:58;8.20;99.90
698;DHT22;331;48.414;9.938;2023-04-02T10:48:30;8.20;99.90
698;DHT22;331;48.414;9.938;2023-04-02T10:51:00;8.20;99.90
698;DHT22;331;48.414;9.938;2023-04-02T10:53:30;8.20;99.90
698;DHT22;331;48.414;9.938;2023-04-02T10:56:00;8.20;99.90
698;DHT22;331;48.414;9.938;2023-04-02T10:58:30;8.30;99.90
698;DHT22;331;48.414;9.938;2023-04-02T11:01:02;8.30;99.90
698;DHT22;331;48.414;9.938;2023-04-02T11:03:33;8.30;99.90
698;DHT22;331;48.414;9.938;2023-04-02T11:06:02;8.30;99.90
698;DHT22;331;48.414;9.938;2023-04-02T11:08:37;8.30;99.90
698;DHT22;331;48.414;9.938;2023-04-02T11:11:06;8.30;99.90
698;DHT22;331;48.414;9.938;2023-04-02T11:13:36;8.30;99.90
698;DHT22;331;48.414;9.938;2023-04-02T11:16:07;8.30;99.90
698;DHT22;331;48.414;9.938;2023-04-02T11:18:39;8.40;99.90
698;DHT22;331;48.414;9.938;2023-04-02T11:21:06;8.40;99.90
698;DHT22;331;48.414;9.938;2023-04-02T11:23:35;8.40;99.90
698;DHT22;331;48.414;9.938;2023-04-02T11:28:49;8.40;99.90
698;DHT22;331;48.414;9.938;2023-04-02T11:31:27;8.40;99.90
698;DHT22;331;48.414;9.938;2023-04-02T11:33:54;8.40;99.90
698;DHT22;331;48.414;9.938;2023-04-02T11:39:08;8.50;99.90
698;DHT22;331;48.414;9.938;2023-04-02T11:44:22;8.50;99.90
698;DHT22;331;48.414;9.938;2023-04-02T11:46:50;8.50;99.90
698;DHT22;331;48.414;9.938;2023-04-02T11:49:39;8.60;99.90
698;DHT22;331;48.414;9.938;2023-04-02T11:52:22;8.50;99.90
698;DHT22;331;48.414;9.938;2023-04-02T11:57:38;8.60;99.90
698;DHT22;331;48.414;9.938;2023-04-02T12:02:58;8.60;99.90
698;DHT22;331;48.414;9.938;2023-04-02T12:05:29;8.60;99.90
698;DHT22;331;48.414;9.938;2023-04-02T12:08:06;8.70;99.90
698;DHT22;331;48.414;9.938;2023-04-02T12:10:48;8.80;99.90
698;DHT22;331;48.414;9.938;2023-04-02T12:13:17;8.80;99.90
698;DHT22;331;48.414;9.938;2023-04-02T12:15:44;8.80;99.90
698;DHT22;331;48.414;9.938;2023-04-02T12:18:14;8.80;99.90
698;DHT22;331;48.414;9.938;2023-04-02T12:20:45;8.80;99.90
698;DHT22;331;48.414;9.938;2023-04-02T12:23:14;8.80;99.90
698;DHT22;331;48.414;9.938;2023-04-02T12:25:43;8.80;99.90
698;DHT22;331;48.414;9.938;2023-04-02T12:28:13;8.80;99.90
698;DHT22;331;48.414;9.938;2023-04-02T12:30:42;8.80;99.90
698;DHT22;331;48.414;9.938;2023-04-02T12:33:21;8.80;99.90
698;DHT22;331;48.414;9.938;2023-04-02T12:35:53;8.80;99.90
698;DHT22;331;48.414;9.938;2023-04-02T12:38:22;8.90;99.90
698;DHT22;331;48.414;9.938;2023-04-02T12:40:53;8.90;99.90
698;DHT22;331;48.414;9.938;2023-04-02T12:43:24;8.90;99.90
698;DHT22;331;48.414;9.938;2023-04-02T12:45:51;8.90;99.90
698;DHT22;331;48.414;9.938;2023-04-02T12:48:20;8.90;99.90
698;DHT22;331;48.414;9.938;2023-04-02T12:50:47;8.90;99.90
698;DHT22;331;48.414;9.938;2023-04-02T12:53:19;8.90;99.90
698;DHT22;331;48.414;9.938;2023-04-02T12:55:47;9.00;99.90
698;DHT22;331;48.414;9.938;2023-04-02T12:58:23;9.00;99.90
698;DHT22;331;48.414;9.938;2023-04-02T13:00:51;9.00;99.90
698;DHT22;331;48.414;9.938;2023-04-02T13:03:20;9.00;99.90
698;DHT22;331;48.414;9.938;2023-04-02T13:05:51;9.10;99.90
698;DHT22;331;48.414;9.938;2023-04-02T13:08:22;9.10;99.90
698;DHT22;331;48.414;9.938;2023-04-02T13:10:53;9.10;99.90
698;DHT22;331;48.414;9.938;2023-04-02T13:13:25;9.10;99.90
698;DHT22;331;48.414;9.938;2023-04-02T13:16:02;9.10;99.90
698;DHT22;331;48.414;9.938;2023-04-02T13:18:34;9.10;99.90
698;DHT22;331;48.414;9.938;2023-04-02T13:21:02;9.10;99.90
698;DHT22;331;48.414;9.938;2023-04-02T13:23:32;9.20;99.90
698;DHT22;331;48.414;9.938;2023-04-02T13:26:01;9.20;99.90
698;DHT22;331;48.414;9.938;2023-04-02T13:28:31;9.20;99.90
698;DHT22;331;48.414;9.938;2023-04-02T13:30:59;9.20;99.90
698;DHT22;331;48.414;9.938;2023-04-02T13:33:26;9.20;99.90
698;DHT22;331;48.414;9.938;2023-04-02T13:35:55;9.20;99.90
698;DHT22;331;48.414;9.938;2023-04-02T13:38:22;9.20;99.90
698;DHT22;331;48.414;9.938;2023-04-02T13:40:50;9.20;99.90
698;DHT22;331;48.414;9.938;2023-04-02T13:43:17;9.20;99.90
698;DHT22;331;48.414;9.938;2023-04-02T13:45:46;9.20;99.90
698;DHT22;331;48.414;9.938;2023-04-02T13:48:14;9.30;99.90
698;DHT22;331;48.414;9.938;2023-04-02T13:50:45;9.30;99.90
698;DHT22;331;48.414;9.938;2023-04-02T13:53:18;9.30;99.90
698;DHT22;331;48.414;9.938;2023-04-02T13:55:46;9.30;99.90
698;DHT22;331;48.414;9.938;2023-04-02T13:58:17;9.30;99.90
698;DHT22;331;48.414;9.938;2023-04-02T14:00:44;9.40;99.90
698;DHT22;331;48.414;9.938;2023-04-02T14:03:17;9.40;99.90
698;DHT22;331;48.414;9.938;2023-04-02T14:05:49;9.40;99.90
698;DHT22;331;48.414;9.938;2023-04-02T14:08:21;9.40;99.90
698;DHT22;331;48.414;9.938;2023-04-02T14:10:52;9.40;99.90
698;DHT22;331;48.414;9.938;2023-04-02T14:13:33;9.40;99.90
698;DHT22;331;48.414;9.938;2023-04-02T14:16:17;9.50;99.90
698;DHT22;331;48.414;9.938;2023-04-02T14:18:59;9.50;99.90
698;DHT22;331;48.414;9.938;2023-04-02T14:21:37;9.50;99.90
698;DHT22;331;48.414;9.938;2023-04-02T14:24:23;9.50;99.90
698;DHT22;331;48.414;9.938;2023-04-02T14:27:01;9.60;99.90
698;DHT22;331;48.414;9.938;2023-04-02T14:29:35;9.60;99.90
698;DHT22;331;48.414;9.938;2023-04-02T14:32:14;9.60;99.90
698;DHT22;331;48.414;9.938;2023-04-02T14:35:09;9.60;99.90
698;DHT22;331;48.414;9.938;2023-04-02T14:37:56;9.60;99.90
698;DHT22;331;48.414;9.938;2023-04-02T14:40:37;9.60;99.90
698;DHT22;331;48.414;9.938;2023-04-02T14:43:23;9.60;99.90
698;DHT22;331;48.414;9.938;2023-04-02T14:45:55;9.60;99.90
698;DHT22;331;48.414;9.938;2023-04-02T14:51:36;9.70;99.90
698;DHT22;331;48.414;9.938;2023-04-02T14:54:42;9.70;99.90
698;DHT22;331;48.414;9.938;2023-04-02T14:57:30;9.70;99.90
698;DHT22;331;48.414;9.938;2023-04-02T14:59:59;9.80;99.90
698;DHT22;331;48.414;9.938;2023-04-02T15:02:31;9.80;99.90
698;DHT22;331;48.414;9.938;2023-04-02T15:05:01;9.90;99.90
698;DHT22;331;48.414;9.938;2023-04-02T15:07:30;9.90;99.90
698;DHT22;331;48.414;9.938;2023-04-02T15:10:04;9.90;99.90
698;DHT22;331;48.414;9.938;2023-04-02T15:12:34;10.00;99.90
698;DHT22;331;48.414;9.938;2023-04-02T15:15:03;10.00;99.90
698;DHT22;331;48.414;9.938;2023-04-02T15:17:33;10.00;99.90
698;DHT22;331;48.414;9.938;2023-04-02T15:20:01;10.00;99.90
698;DHT22;331;48.414;9.938;2023-04-02T15:22:35;10.00;99.90
698;DHT22;331;48.414;9.938;2023-04-02T15:25:09;10.10;99.90
698;DHT22;331;48.414;9.938;2023-04-02T15:27:48;10.20;99.90
698;DHT22;331;48.414;9.938;2023-04-02T15:30:19;10.30;99.90
698;DHT22;331;48.414;9.938;2023-04-02T15:32:47;10.20;99.90
698;DHT22;331;48.414;9.938;2023-04-02T15:35:17;10.20;99.90
698;DHT22;331;48.414;9.938;2023-04-02T15:37:49;10.20;99.90
698;DHT22;331;48.414;9.938;2023-04-02T15:40:21;10.20;99.90
698;DHT22;331;48.414;9.938;2023-04-02T15:42:53;10.20;99.90
698;DHT22;331;48.414;9.938;2023-04-02T15:45:24;10.20;99.90
698;DHT22;331;48.414;9.938;2023-04-02T15:50:45;10.20;99.90
698;DHT22;331;48.414;9.938;2023-04-02T15:53:17;10.20;99.90
698;DHT22;331;48.414;9.938;2023-04-02T15:55:48;10.20;99.90
698;DHT22;331;48.414;9.938;2023-04-02T15:58:20;10.20;99.90
698;DHT22;331;48.414;9.938;2023-04-02T16:00:50;10.20;99.90
698;DHT22;331;48.414;9.938;2023-04-02T16:03:29;10.20;99.90
698;DHT22;331;48.414;9.938;2023-04-02T16:06:13;10.10;99.90
698;DHT22;331;48.414;9.938;2023-04-02T16:08:48;10.20;99.90
698;DHT22;331;48.414;9.938;2023-04-02T16:11:22;10.20;99.90
698;DHT22;331;48.414;9.938;2023-04-02T16:13:50;10.10;99.90
698;DHT22;331;48.414;9.938;2023-04-02T16:16:19;10.10;99.90
698;DHT22;331;48.414;9.938;2023-04-02T16:18:50;10.10;99.90
698;DHT22;331;48.414;9.938;2023-04-02T16:21:19;10.10;99.90
698;DHT22;331;48.414;9.938;2023-04-02T16:23:47;10.10;99.90
698;DHT22;331;48.414;9.938;2023-04-02T16:26:34;10.10;99.90
698;DHT22;331;48.414;9.938;2023-04-02T16:29:08;10.10;99.90
698;DHT22;331;48.414;9.938;2023-04-02T16:31:40;10.10;99.90
698;DHT22;331;48.414;9.938;2023-04-02T16:34:11;10.00;99.90
698;DHT22;331;48.414;9.938;2023-04-02T16:36:42;10.10;99.90
698;DHT22;331;48.414;9.938;2023-04-02T16:39:16;10.00;99.90
698;DHT22;331;48.414;9.938;2023-04-02T16:41:51;10.00;99.90
698;DHT22;331;48.414;9.938;2023-04-02T16:44:23;10.00;99.90
698;DHT22;331;48.414;9.938;2023-04-02T16:47:00;10.00;99.90
698;DHT22;331;48.414;9.938;2023-04-02T16:49:31;10.00;99.90
698;DHT22;331;48.414;9.938;2023-04-02T16:52:05;10.00;99.90
698;DHT22;331;48.414;9.938;2023-04-02T16:54:36;10.00;99.90
698;DHT22;331;48.414;9.938;2023-04-02T16:57:10;9.90;99.90
698;DHT22;331;48.414;9.938;2023-04-02T16:59:42;10.00;99.90
698;DHT22;331;48.414;9.938;2023-04-02T17:02:15;10.00;99.90
698;DHT22;331;48.414;9.938;2023-04-02T17:04:52;9.90;99.90
698;DHT22;331;48.414;9.938;2023-04-02T17:07:32;9.90;99.90
698;DHT22;331;48.414;9.938;2023-04-02T17:10:01;9.90;99.90
698;DHT22;331;48.414;9.938;2023-04-02T17:12:34;9.90;99.90
698;DHT22;331;48.414;9.938;2023-04-02T17:15:13;9.90;99.90
698;DHT22;331;48.414;9.938;2023-04-02T17:17:45;9.90;99.90
698;DHT22;331;48.414;9.938;2023-04-02T17:20:12;9.80;99.90
698;DHT22;331;48.414;9.938;2023-04-02T17:22:41;9.80;99.90
698;DHT22;331;48.414;9.938;2023-04-02T17:25:13;9.90;99.90
698;DHT22;331;48.414;9.938;2023-04-02T17:27:42;9.90;99.90
698;DHT22;331;48.414;9.938;2023-04-02T17:30:13;9.80;99.90
698;DHT22;331;48.414;9.938;2023-04-02T17:32:42;9.80;99.90
698;DHT22;331;48.414;9.938;2023-04-02T17:35:15;9.80;99.90
698;DHT22;331;48.414;9.938;2023-04-02T17:37:46;9.80;99.90
698;DHT22;331;48.414;9.938;2023-04-02T17:40:20;9.80;99.90
698;DHT22;331;48.414;9.938;2023-04-02T17:42:50;9.80;99.90
698;DHT22;331;48.414;9.938;2023-04-02T17:45:23;9.70;99.90
698;DHT22;331;48.414;9.938;2023-04-02T17:47:57;9.70;99.90
698;DHT22;331;48.414;9.938;2023-04-02T17:50:32;9.70;99.90